Ardabil, Iran
Current Conditions -  °F | °C
As of 7:30 PM on Tuesday 27 Jan 2015 (Local Time) from OIGG Reporting Station
Haze Haze  
Wind Chill: 46°   Ceiling: 7000
Heat Index: 46°   Visibility: 2.5mi
Dew Point: 45°   Wind: 0mph
Humidity: 93%   Direction: NA
Pressure: 30.24"   Gusts: NA
Location:  38.25°N, 48.29°E
Report Text: OIGG 271630Z 00000KT 4000 BR FEW015CB SCT020OVC070 08/07 Q1024
Loading
Personal Weather Stations






























Interactive Weather Map New forecast layout! Learn more

10-Day Weather Forecast

Advertisements
Track Severe Weather on mobile